Nearby METAR Reports

 

EKAH - Tirstrup (civ/Mi, Denmark
Distance from station: SSW 25km
Updated: 14/10/2019 03:20
Mostly cloudy
Mostly cloudy
 Wind from SW
Wind: SW 20 km/h, Gust: 43 km/h
Temperature: 14°C
Dew Point: 11°C
Humidity: 82%
Barometer: 1000 hPa
Clouds: Mostly cloudy
Visibility: 10 km
Cloud details: Mostly cloudy 732 m
2019/10/14 01:20 EKAH 140120Z AUTO 23011G23KT 170V270 9999NDV BKN024/// 14/11 Q1000
EKYT - Alborg, Denmark
Distance from station: NW 91km
Updated: 14/10/2019 03:20
Mostly cloudy
Mostly cloudy
 Wind from SW
Wind: SW 37 km/h
Temperature: 13°C
Dew Point: 11°C
Humidity: 88%
Barometer: 996 hPa
Clouds: Mostly cloudy
Visibility: 10 km
Cloud details: Few Clouds 762 m
Mostly cloudy 975 m
2019/10/14 01:20 EKYT 140120Z AUTO 22020KT 9999 FEW025/// BKN032/// 13/11 Q0996
EKKA - Karup (dan-Afb), Denmark
Distance from station: W 107km
Updated: 14/10/2019 03:24
Mostly cloudy
Mostly cloudy
 Wind from SW
Wind: SW 43 km/h, Gust: 63 km/h
Temperature: 14°C
Dew Point: 11°C
Humidity: 82%
Barometer: 998 hPa
Clouds: Mostly cloudy
Visibility: 10 km
Cloud details: Mostly cloudy 610 m
2019/10/14 01:24 EKKA 140124Z AUTO 22023G34KT 9999 BKN020/// 14/11 Q0998
 
EKOD - Odense/Beldringe, Denmark
Distance from station: SSW 116km
Updated: 13/10/2019 14:50
NOT Current
Mostly cloudy
Mostly cloudy
 Wind from ESE
Wind: ESE 15 km/h
Temperature: 12°C
Dew Point: 11°C
Humidity: 94%
Barometer: 1009 hPa
Clouds: Mostly cloudy
Visibility: 10 km
Cloud details: Few Clouds 488 m
Mostly cloudy 914 m
Mostly cloudy 1158 m
2019/10/13 12:50 EKOD 131250Z 12008KT 090V150 9999 FEW016 BKN030 BKN038 12/11 Q1009
EKBI - Billund Airport, Denmark
Distance from station: SW 134km
Updated: 14/10/2019 03:20
Light rain, Showers, Mostly cloudy
Light rain, Showers, Mostly cloudy
 Wind from SW
Wind: SW 35 km/h, Gust: 61 km/h
Temperature: 13°C
Dew Point: 11°C
Humidity: 88%
Barometer: 1002 hPa
Summary: Light rain, Showers
Clouds: Mostly cloudy
Visibility: 10 km
Cloud details: Mostly cloudy 610 m
2019/10/14 01:20 EKBI 140120Z AUTO 23019G33KT 200V260 9999 -SHRA BKN020/// 13/11 Q1002
EKCH - Copenhagen/Kastr, Denmark
Distance from station: SE 148km
Updated: 14/10/2019 03:20
Few Clouds
Few Clouds
 Wind from WSW
Wind: WSW 31 km/h
Temperature: 15°C
Dew Point: 12°C
Humidity: 82%
Barometer: 1004 hPa
Clouds: Few Clouds
Visibility: 10 km
Cloud details: Few Clouds 732 m
2019/10/14 01:20 EKCH 140120Z AUTO 24017KT 9999 FEW024/// 15/12 Q1004 TEMPO 23018G32KT